Dades meteomassalio
Diari Summary for Febrer 26, 2018 Units:  Metric    English   Both
« Previous Day
Next Day »
Diari Semanal Mensual Anual Personalitzat
  Maxima: Minima: Mijana:
Temperatura: -17.8 °C -19.6 °C -14.7 °C
Rosada: -17.8 °C -23.6 °C -20.5 °C
Humitat: Humidity % 30 % 49 %
Velocitat del vent: 0 km/h 0 km/h 20.1 km/h
Racha vent: 0 km/h - -
Vent:- - WNW
Pressio: 0 hPa 34073.3 hPa -
Pluja: 0 mm    
Historical Graphs
 
 
Tabular Data for Febrer 26, 2018
Time Temperature Dew Point Pressure Wind Wind Speed Wind Gust Humidity Rainfall Rate (Hourly) solar Conditions
-17.8 °C -17.8 °C 0 hPa Calm     Humidity % 0 mm SolarRadiationWatts/m^2 W/m2 Conditions
00:04 -13.8 °C -19.6 °C 34279.9 hPa WNW 38.8 km/h 38.8 km/h 47 % 0 mm 0.0 W/m2 CLR
00:09 -13.8 °C -19.6 °C 34279.9 hPa NW 35.7 km/h 35.7 km/h 47 % 0 mm 0.0 W/m2 CLR
00:14 -13.8 °C -19.6 °C 34279.9 hPa WNW 44.7 km/h 44.7 km/h 47 % 0 mm 0.0 W/m2 CLR
00:19 -13.8 °C -19.5 °C 34293.4 hPa WNW 29.8 km/h 29.8 km/h 48 % 0 mm 0.0 W/m2 CLR
00:24 -14.1 °C -19.8 °C 34293.4 hPa NW 26.9 km/h 26.9 km/h 48 % 0 mm 0.0 W/m2 CLR
00:29 -14.1 °C -19.8 °C 34293.4 hPa NW 23.3 km/h 23.3 km/h 48 % 0 mm 0.0 W/m2 CLR
00:34 -14.4 °C -20.1 °C 34293.4 hPa WNW 29.8 km/h 29.8 km/h 48 % 0 mm 0.0 W/m2 CLR
00:39 -14.7 °C -20.2 °C 34293.4 hPa NW 32.8 km/h 32.8 km/h 49 % 0 mm 0.0 W/m2 CLR
00:44 -15 °C -20.4 °C 34293.4 hPa WNW 26.9 km/h 26.9 km/h 49 % 0 mm 0.0 W/m2 CLR
00:49 -15 °C -20.3 °C 34293.4 hPa WNW 26.9 km/h 26.9 km/h 50 % 0 mm 0.0 W/m2 CLR
00:54 -15 °C -20.3 °C 34293.4 hPa NW 25.9 km/h 25.9 km/h 50 % 0 mm 0.0 W/m2 CLR
00:59 -15.3 °C -20.6 °C 34293.4 hPa WNW 26.9 km/h 26.9 km/h 50 % 0 mm 0.0 W/m2 CLR
01:04 -15.6 °C -20.7 °C 34293.4 hPa NW 35.7 km/h 35.7 km/h 51 % 0 mm 0.0 W/m2 CLR
01:09 -15.3 °C -20.4 °C 34293.4 hPa WNW 35.7 km/h 35.7 km/h 51 % 0 mm 0.0 W/m2 CLR
01:14 -14.4 °C -19.6 °C 34293.4 hPa NW 25.9 km/h 25.9 km/h 51 % 0 mm 0.0 W/m2 CLR
01:19 -14.1 °C -19.3 °C 34293.4 hPa NW 29.8 km/h 29.8 km/h 51 % 0 mm 0.0 W/m2 CLR
01:24 -14.1 °C -19.3 °C 34293.4 hPa NW 33.6 km/h 33.6 km/h 51 % 0 mm 0.0 W/m2 CLR
01:29 -14.1 °C -19.3 °C 34293.4 hPa WNW 29.8 km/h 29.8 km/h 51 % 0 mm 0.0 W/m2 CLR
01:34 -14.1 °C -19.2 °C 34293.4 hPa West 29.8 km/h 29.8 km/h 52 % 0 mm 0.0 W/m2 CLR
01:39 -14.4 °C -19.3 °C 34293.4 hPa West 23.8 km/h 23.8 km/h 53 % 0 mm 0.0 W/m2 CLR
01:44 -14.7 °C -19.6 °C 34293.4 hPa WNW 29.8 km/h 29.8 km/h 53 % 0 mm 0.0 W/m2 CLR
01:49 -15 °C -19.8 °C 34279.9 hPa WNW 20.9 km/h 20.9 km/h 54 % 0 mm 0.0 W/m2 CLR
01:54 -15.3 °C -19.9 °C 34293.4 hPa West 11.9 km/h 11.9 km/h 55 % 0 mm 0.0 W/m2 CLR
01:59 -15.6 °C -20.2 °C 34293.4 hPa West 23.8 km/h 23.8 km/h 55 % 0 mm 0.0 W/m2 CLR
02:04 -15 °C -19.6 °C 34293.4 hPa West 18.2 km/h 18.2 km/h 55 % 0 mm 0.0 W/m2 CLR
02:09 -14.7 °C -19.2 °C 34293.4 hPa West 23.8 km/h 23.8 km/h 56 % 0 mm 0.0 W/m2 CLR
02:14 -14.7 °C -19.2 °C 34293.4 hPa WNW 15 km/h 15 km/h 56 % 0 mm 0.0 W/m2 CLR
02:19 -15 °C -19.3 °C 34293.4 hPa West 15.6 km/h 15.6 km/h 57 % 0 mm 0.0 W/m2 CLR
02:24 -15 °C -19.3 °C 34279.9 hPa West 26.9 km/h 26.9 km/h 57 % 0 mm 0.0 W/m2 CLR
02:30 -15.3 °C -19.5 °C 34279.9 hPa West 29.8 km/h 29.8 km/h 58 % 0 mm 0.0 W/m2 CLR
02:36 -15.3 °C -19.5 °C 34279.9 hPa West 36.2 km/h 36.2 km/h 58 % 0 mm 0.0 W/m2 CLR
02:41 -15.3 °C -19.4 °C 34279.9 hPa West 17.9 km/h 17.9 km/h 59 % 0 mm 0.0 W/m2 CLR
02:46 -15 °C -19.1 °C 34293.4 hPa West 29.8 km/h 29.8 km/h 59 % 0 mm 0.0 W/m2 CLR
02:51 -15 °C -19.1 °C 34279.9 hPa West 17.9 km/h 17.9 km/h 59 % 0 mm 0.0 W/m2 CLR
02:56 -15.3 °C -19.4 °C 34279.9 hPa West 15 km/h 15 km/h 59 % 0 mm 0.0 W/m2 CLR
03:01 -15.6 °C -19.7 °C 34279.9 hPa WNW 18.2 km/h 18.2 km/h 59 % 0 mm 0.0 W/m2 CLR
03:06 -15.9 °C -20.1 °C 34279.9 hPa WNW 23.8 km/h 23.8 km/h 58 % 0 mm 0.0 W/m2 CLR
03:11 -16.2 °C -20.4 °C 34279.9 hPa WNW 20.9 km/h 20.9 km/h 58 % 0 mm 0.0 W/m2 CLR
03:16 -16.6 °C -20.7 °C 34279.9 hPa NW 15.6 km/h 15.6 km/h 58 % 0 mm 0.0 W/m2 CLR
03:22 -16.6 °C -20.7 °C 34279.9 hPa NNW 20.8 km/h 20.8 km/h 58 % 0 mm 0.0 W/m2 CLR
03:27 -16.8 °C -20.9 °C 34279.9 hPa Calm     58 % 0 mm 0.0 W/m2 CLR
03:32 -17.2 °C -21.2 °C 34279.9 hPa NW 17.9 km/h 17.9 km/h 58 % 0 mm 0.0 W/m2 CLR
03:37 -17.2 °C -21.2 °C 34279.9 hPa WNW 15 km/h   58 % 0 mm 0.0 W/m2 CLR
03:42 -17.2 °C -21.2 °C 34279.9 hPa Calm     58 % 0 mm 0.0 W/m2 CLR
03:47 -17.4 °C -21.4 °C 34279.9 hPa Calm     59 % 0 mm 0.0 W/m2 CLR
03:52 -17.4 °C -21.4 °C 34279.9 hPa NW 20.9 km/h 20.9 km/h 59 % 0 mm 0.0 W/m2 CLR
03:57 -17.4 °C -21.4 °C 34279.9 hPa Calm     59 % 0 mm 0.0 W/m2 CLR
04:02 -17.4 °C -21.4 °C 34279.9 hPa Calm     59 % 0 mm 0.0 W/m2 CLR
04:07 -17.8 °C -21.6 °C 34279.9 hPa Calm     60 % 0 mm 0.0 W/m2 CLR
04:12 -17.4 °C -21.3 °C 34279.9 hPa Calm     60 % 0 mm 0.0 W/m2 CLR
04:17 -17.4 °C -21.3 °C 34279.9 hPa Calm     60 % 0 mm 0.0 W/m2 CLR
04:22 -17.2 °C -20.9 °C 34279.9 hPa Calm     61 % 0 mm 0.0 W/m2 CLR
04:27 -17.2 °C -20.9 °C 34279.9 hPa Calm     61 % 0 mm 0.0 W/m2 CLR
04:32 -17.2 °C -20.9 °C 34279.9 hPa Calm     61 % 0 mm 0.0 W/m2 CLR
04:37 -17.4 °C -21.2 °C 34279.9 hPa Calm     61 % 0 mm 0.0 W/m2 CLR
04:42 -17.4 °C -21.2 °C 34279.9 hPa Calm     61 % 0 mm 0.0 W/m2 CLR
04:47 -17.8 °C -21.3 °C 34279.9 hPa Calm     62 % 0 mm 0.0 W/m2 CLR
04:52 -17.8 °C -21.3 °C 34279.9 hPa Calm     62 % 0 mm 0.0 W/m2 CLR
04:57 -17.8 °C -21.2 °C 34279.9 hPa Calm     63 % 0 mm 0.0 W/m2 CLR
05:02 -17.8 °C -21.2 °C 34279.9 hPa Calm     63 % 0 mm 0.0 W/m2 CLR
05:07 -17.8 °C -21.1 °C 34279.9 hPa Calm     64 % 0 mm 0.0 W/m2 CLR
05:12 -17.8 °C -21.1 °C 34279.9 hPa Calm     64 % 0 mm 0.0 W/m2 CLR
05:17 -18.1 °C -21.3 °C 34279.9 hPa NNE 9 km/h 9 km/h 65 % 0 mm 0.0 W/m2 CLR
05:22 -18.1 °C -21.3 °C 34279.9 hPa Calm     65 % 0 mm 0.0 W/m2 CLR
05:27 -18.1 °C -21.2 °C 34279.9 hPa Calm     66 % 0 mm 0.0 W/m2 CLR
05:32 -18.1 °C -21.2 °C 34279.9 hPa Calm     66 % 0 mm 0.0 W/m2 CLR
05:37 -17.8 °C -20.9 °C 34279.9 hPa Calm     66 % 0 mm 0.0 W/m2 CLR
05:42 -17.8 °C -20.8 °C 34279.9 hPa Calm     67 % 0 mm 0.0 W/m2 CLR
05:47 -17.8 °C -20.7 °C 34279.9 hPa Calm     68 % 0 mm 0.0 W/m2 CLR
05:52 -18.1 °C -21.1 °C 34279.9 hPa Calm     67 % 0 mm 0.0 W/m2 CLR
05:57 -18.1 °C -20.9 °C 34279.9 hPa NW 15.6 km/h 15.6 km/h 69 % 0 mm 0.0 W/m2 CLR
06:02 -18.1 °C -20.9 °C 34279.9 hPa NW 11.9 km/h 11.9 km/h 69 % 0 mm 0.0 W/m2 CLR
06:07 -18.4 °C -21.2 °C 34279.9 hPa Calm     69 % 0 mm 0.0 W/m2 CLR
06:12 -18.4 °C -21.2 °C 34279.9 hPa Calm     69 % 0 mm 0.0 W/m2 CLR
06:17 -18.7 °C -21.4 °C 34279.9 hPa Calm     69 % 0 mm 0.0 W/m2 CLR
06:22 -19 °C -21.6 °C 34279.9 hPa Calm     70 % 0 mm 0.0 W/m2 CLR
06:27 -19 °C -21.6 °C 34279.9 hPa Calm     71 % 0 mm 0.0 W/m2 CLR
06:32 -19 °C -21.6 °C 34279.9 hPa Calm     71 % 0 mm 0.0 W/m2 CLR
06:37 -19 °C -21.3 °C 34269.7 hPa Calm     73 % 0 mm 0.0 W/m2 CLR
06:42 -19 °C -21.3 °C 34269.7 hPa Calm     73 % 0 mm 0.0 W/m2 CLR
06:47 -19.3 °C -21.4 °C 34269.7 hPa Calm     75 % 0 mm 0.0 W/m2 CLR
06:52 -19.3 °C -21.4 °C 34269.7 hPa Calm     75 % 0 mm 0.0 W/m2 CLR
06:57 -19.3 °C -21.4 °C 34269.7 hPa Calm     75 % 0 mm 0.0 W/m2 CLR
07:02 -19.3 °C -21.4 °C 34269.7 hPa Calm     75 % 0 mm 0.0 W/m2 CLR
07:07 -19.6 °C -21.6 °C 34269.7 hPa Calm     76 % 0 mm 0.0 W/m2 CLR
07:12 -19.6 °C -21.4 °C 34269.7 hPa Calm     78 % 0 mm 0.0 W/m2 CLR
07:17 -19.3 °C -21.1 °C 34269.7 hPa Calm     79 % 0 mm 0.0 W/m2 CLR
07:22 -19.6 °C -21.3 °C 34269.7 hPa Calm     79 % 0 mm 0.0 W/m2 CLR
07:27 -19.6 °C -21.3 °C 34269.7 hPa Calm     79 % 0 mm 0.0 W/m2 CLR
07:32 -19.6 °C -21.3 °C 34269.7 hPa Calm     79 % 0 mm 0.0 W/m2 OVC
07:37 -19.3 °C -20.9 °C 34269.7 hPa Calm     80 % 0 mm 0.0 W/m2 OVC
07:42 -19.3 °C -20.9 °C 34269.7 hPa Calm     81 % 0 mm 7.0 W/m2 OVC
07:47 -19.3 °C -20.8 °C 34269.7 hPa Calm     82 % 0 mm 9.0 W/m2 BKN
07:52 -19.6 °C -21.1 °C 34269.7 hPa Calm     82 % 0 mm 14.0 W/m2 BKN
07:57 -19.6 °C -21.1 °C 34279.9 hPa Calm     82 % 0 mm 18.0 W/m2 BKN
08:02 -19.6 °C -21 °C 34279.9 hPa Calm     83 % 0 mm 21.0 W/m2 BKN
08:07 -19.6 °C -21 °C 34279.9 hPa Calm     83 % 0 mm 26.0 W/m2 BKN
08:12 -19.6 °C -21 °C 34279.9 hPa Calm     83 % 0 mm 33.0 W/m2 BKN
08:17 -19.3 °C -20.7 °C 34269.7 hPa Calm     83 % 0 mm 44.0 W/m2 BKN
08:22 -19.3 °C -20.8 °C 34279.9 hPa Calm     82 % 0 mm 54.0 W/m2 SCT
08:27 -19.3 °C -20.9 °C 34279.9 hPa Calm     81 % 0 mm 63.0 W/m2 SCT
08:32 -19.3 °C -20.9 °C 34279.9 hPa Calm     81 % 0 mm 70.0 W/m2 FEW
08:37 -19.3 °C -20.9 °C 34279.9 hPa Calm     80 % 0 mm 84.0 W/m2 FEW
08:42 -19 °C -20.7 °C 34279.9 hPa Calm     80 % 0 mm 113.0 W/m2 FEW
08:47 -18.7 °C -20.4 °C 34279.9 hPa Calm     79 % 0 mm 130.0 W/m2 CLR
08:52 -18.7 °C -20.7 °C 34279.9 hPa Calm     77 % 0 mm 151.0 W/m2 CLR
08:58 -18.7 °C -20.7 °C 34279.9 hPa Calm     77 % 0 mm 128.0 W/m2 CLR
09:02 -18.4 °C -20.3 °C 34269.7 hPa Calm     77 % 0 mm 142.0 W/m2 CLR
09:08 -18.4 °C -20.4 °C 34269.7 hPa Calm     76 % 0 mm 202.0 W/m2 CLR
09:13 -18.1 °C -20.2 °C 34279.9 hPa Calm     75 % 0 mm 223.0 W/m2 CLR
09:17 -18.1 °C -20.3 °C 34279.9 hPa Calm     74 % 0 mm 241.0 W/m2 CLR
09:23 -17.8 °C -20.3 °C 34279.9 hPa Calm     71 % 0 mm 258.0 W/m2 CLR
09:28 -17.8 °C -20.7 °C 34279.9 hPa Calm     68 % 0 mm 272.0 W/m2 CLR
09:33 -17.4 °C -20.6 °C 34269.7 hPa Calm     66 % 0 mm 292.0 W/m2 CLR
09:38 -17.2 °C -20.4 °C 34279.9 hPa Calm     65 % 0 mm 306.0 W/m2 CLR
09:43 -16.6 °C -20.2 °C 34279.9 hPa Calm     62 % 0 mm 320.0 W/m2 CLR
09:48 -15.9 °C -19.9 °C 34279.9 hPa WNW 9 km/h 9 km/h 59 % 0 mm 334.0 W/m2 CLR
09:53 -15.3 °C -19.6 °C 34279.9 hPa NW 6 km/h 6 km/h 57 % 0 mm 352.0 W/m2 CLR
09:58 -15 °C -19.5 °C 34279.9 hPa WNW 32.8 km/h 32.8 km/h 56 % 0 mm 366.0 W/m2 CLR
10:03 -14.7 °C -19.3 °C 34279.9 hPa WNW 29.8 km/h 29.8 km/h 55 % 0 mm 380.0 W/m2 CLR
10:08 -14.4 °C -19.1 °C 34279.9 hPa NW 28.5 km/h 28.5 km/h 55 % 0 mm 394.0 W/m2 CLR
10:13 -14.4 °C -19.2 °C 34279.9 hPa NW 29.8 km/h 29.8 km/h 54 % 0 mm 410.0 W/m2 CLR
10:18 -14.4 °C -19.3 °C 34279.9 hPa WNW 29.8 km/h 29.8 km/h 53 % 0 mm 420.0 W/m2 CLR
10:24 -14.4 °C -19.3 °C 34279.9 hPa West 15.6 km/h 15.6 km/h 53 % 0 mm 438.0 W/m2 CLR
10:29 -14.1 °C -19.2 °C 34279.9 hPa West 9 km/h 9 km/h 52 % 0 mm 450.0 W/m2 CLR
10:34 -14.1 °C -19.2 °C 34279.9 hPa NNE 23.8 km/h 23.8 km/h 52 % 0 mm 464.0 W/m2 CLR
10:39 -13.8 °C -18.9 °C 34279.9 hPa NNW 29.8 km/h 29.8 km/h 52 % 0 mm 478.0 W/m2 CLR
10:44 -13.8 °C -19.1 °C 34279.9 hPa West 20.9 km/h 20.9 km/h 51 % 0 mm 490.0 W/m2 CLR
10:49 -13.8 °C -19.2 °C 34269.7 hPa NW 29.8 km/h 29.8 km/h 50 % 0 mm 501.0 W/m2 CLR
10:54 -13.8 °C -19.1 °C 34269.7 hPa West 26.9 km/h 26.9 km/h 51 % 0 mm 512.0 W/m2 CLR
10:59 -13.4 °C -18.9 °C 34269.7 hPa NW 23.3 km/h 23.3 km/h 50 % 0 mm 527.0 W/m2 CLR
11:04 -13.4 °C -19.1 °C 34269.7 hPa NW 23.8 km/h 23.8 km/h 49 % 0 mm 534.0 W/m2 CLR
11:09 -13.4 °C -19.1 °C 34269.7 hPa West 17.9 km/h 17.9 km/h 49 % 0 mm 547.0 W/m2 CLR
11:14 -13.2 °C -18.8 °C 34256.2 hPa NW 29.8 km/h 29.8 km/h 49 % 0 mm 557.0 W/m2 CLR
11:19 -12.8 °C -18.3 °C 34256.2 hPa NW 29.8 km/h 29.8 km/h 50 % 0 mm 568.0 W/m2 CLR
11:24 -12.8 °C -18.7 °C 34269.7 hPa West 6 km/h 6 km/h 48 % 0 mm 577.0 W/m2 CLR
11:29 -12.8 °C -18.8 °C 34256.2 hPa NW 26.9 km/h 26.9 km/h 47 % 0 mm 584.0 W/m2 CLR
11:34 -12.8 °C -18.8 °C 34256.2 hPa West 9 km/h 9 km/h 47 % 0 mm 591.0 W/m2 CLR
11:39 -12.8 °C -18.7 °C 34256.2 hPa Calm   0.5 km/h 48 % 0 mm 603.0 W/m2 CLR
11:44 -12.6 °C -18.7 °C 34256.2 hPa WNW 26.9 km/h 26.9 km/h 46 % 0 mm 608.0 W/m2 CLR
11:49 -12.6 °C -18.5 °C 34256.2 hPa WNW 23.8 km/h 23.8 km/h 47 % 0 mm 613.0 W/m2 CLR
11:54 -12.6 °C -18.8 °C 34256.2 hPa West 33.6 km/h 33.6 km/h 45 % 0 mm 621.0 W/m2 CLR
11:59 -12.2 °C -18.4 °C 34246 hPa West 29.8 km/h 29.8 km/h 46 % 0 mm 629.0 W/m2 CLR
12:04 -12.2 °C -18.6 °C 34246 hPa West 6 km/h 6 km/h 45 % 0 mm 633.0 W/m2 CLR
12:09 -11.9 °C -18.3 °C 34246 hPa WNW 32.8 km/h 32.8 km/h 45 % 0 mm 640.0 W/m2 CLR
12:14 -11.9 °C -18.4 °C 34246 hPa NW 32.8 km/h 32.8 km/h 44 % 0 mm 643.0 W/m2 CLR
12:19 -11.9 °C -18.3 °C 34246 hPa WNW 20.9 km/h 20.9 km/h 45 % 0 mm 652.0 W/m2 CLR
12:24 -11.9 °C -18.6 °C 34246 hPa WNW 35.7 km/h 35.7 km/h 43 % 0 mm 657.0 W/m2 CLR
12:29 -11.9 °C -18.8 °C 34235.8 hPa NW 26.9 km/h 26.9 km/h 42 % 0 mm 663.0 W/m2 CLR
12:34 -11.9 °C -18.6 °C 34235.8 hPa WNW 29.8 km/h 29.8 km/h 43 % 0 mm 663.0 W/m2 CLR
12:39 -11.6 °C -18.5 °C 34235.8 hPa WNW 29.8 km/h 29.8 km/h 42 % 0 mm 664.0 W/m2 CLR
12:44 -11.6 °C -18.3 °C 34235.8 hPa NW 23.8 km/h 23.8 km/h 43 % 0 mm 671.0 W/m2 CLR
12:49 -11.6 °C -18.7 °C 34235.8 hPa NW 35.7 km/h 35.7 km/h 41 % 0 mm 671.0 W/m2 CLR
12:54 -11.6 °C -18.5 °C 34222.3 hPa WNW 23.8 km/h 23.8 km/h 42 % 0 mm 668.0 W/m2 CLR
12:59 -11.6 °C -18.3 °C 34222.3 hPa NW 29.8 km/h 29.8 km/h 43 % 0 mm 673.0 W/m2 CLR
13:04 -11.3 °C -18.6 °C 34222.3 hPa WNW 29.8 km/h 29.8 km/h 40 % 0 mm 675.0 W/m2 CLR
13:09 -11.3 °C -18.6 °C 34222.3 hPa NNW 29.8 km/h 29.8 km/h 40 % 0 mm 682.0 W/m2 CLR
13:14 -11 °C -18.3 °C 34222.3 hPa NW 23.8 km/h 23.8 km/h 40 % 0 mm 684.0 W/m2 CLR
13:19 -11 °C -18.5 °C 34222.3 hPa NNW 35.7 km/h 35.7 km/h 39 % 0 mm 680.0 W/m2 CLR
13:24 -11.3 °C -19 °C 34212.1 hPa NNW 41.4 km/h 41.4 km/h 38 % 0 mm 684.0 W/m2 CLR
13:29 -11.3 °C -18.8 °C 34212.1 hPa NNW 29.8 km/h 29.8 km/h 39 % 0 mm 677.0 W/m2 CLR
13:34 -11.3 °C -19 °C 34198.6 hPa NNW 29.8 km/h 29.8 km/h 38 % 0 mm 677.0 W/m2 CLR
13:39 -11.3 °C -19 °C 34198.6 hPa NNW 35.7 km/h 35.7 km/h 38 % 0 mm 675.0 W/m2 CLR
13:44 -11.3 °C -18.8 °C 34198.6 hPa NW 32.8 km/h 32.8 km/h 39 % 0 mm 670.0 W/m2 CLR
13:49 -11.3 °C -18.8 °C 34198.6 hPa NW 35.7 km/h 35.7 km/h 39 % 0 mm 671.0 W/m2 CLR
13:54 -11 °C -18.7 °C 34188.4 hPa NNW 38.8 km/h 38.8 km/h 38 % 0 mm 671.0 W/m2 CLR
13:59 -11 °C -18.7 °C 34188.4 hPa NNW 29.8 km/h 29.8 km/h 38 % 0 mm 664.0 W/m2 CLR
14:04 -11 °C -18.7 °C 34178.3 hPa WNW 26.9 km/h 26.9 km/h 38 % 0 mm 659.0 W/m2 CLR
14:09 -11 °C -18.9 °C 34178.3 hPa NW 23.8 km/h 23.8 km/h 37 % 0 mm 656.0 W/m2 CLR
14:14 -11 °C -18.7 °C 34178.3 hPa NNW 29.8 km/h 29.8 km/h 38 % 0 mm 652.0 W/m2 CLR
14:19 -11 °C -18.9 °C 34178.3 hPa NW 26.9 km/h 26.9 km/h 37 % 0 mm 647.0 W/m2 CLR
14:24 -11 °C -18.5 °C 34164.7 hPa NNW 38.8 km/h 38.8 km/h 39 % 0 mm 636.0 W/m2 CLR
14:29 -11 °C -18.7 °C 34164.7 hPa NW 38.8 km/h 38.8 km/h 38 % 0 mm 631.0 W/m2 CLR
14:34 -11 °C -18.7 °C 34164.7 hPa NNW 35.7 km/h 35.7 km/h 38 % 0 mm 626.0 W/m2 CLR
14:39 -11 °C -18.9 °C 34164.7 hPa WNW 38.8 km/h 38.8 km/h 37 % 0 mm 615.0 W/m2 CLR
14:44 -11 °C -18.7 °C 34154.6 hPa NW 36.2 km/h 36.2 km/h 38 % 0 mm 612.0 W/m2 CLR
14:49 -11 °C -18.9 °C 34154.6 hPa NW 23.8 km/h 23.8 km/h 37 % 0 mm 608.0 W/m2 CLR
14:54 -10.7 °C -19.3 °C 34144.4 hPa NW 35.7 km/h 35.7 km/h 34 % 0 mm 605.0 W/m2 CLR
14:59 -11 °C -19.3 °C 34144.4 hPa WNW 29.8 km/h 29.8 km/h 35 % 0 mm 582.0 W/m2 CLR
15:04 -10.7 °C -19.3 °C 34144.4 hPa West 29.8 km/h 29.8 km/h 34 % 0 mm 582.0 W/m2 CLR
15:05 -10.7 °C -19.5 °C 34144.4 hPa NW 29.8 km/h 29.8 km/h 33 % 0 mm 582.0 W/m2 CLR
15:10 -10.7 °C -19.5 °C 34144.4 hPa North 33.6 km/h 33.6 km/h 33 % 0 mm 575.0 W/m2 CLR
15:15 -10.4 °C -19.5 °C 34144.4 hPa North 41.7 km/h 41.7 km/h 32 % 0 mm 563.0 W/m2 CLR
15:20 -10.4 °C -19.5 °C 34144.4 hPa NNW 44.7 km/h 44.7 km/h 32 % 0 mm 552.0 W/m2 CLR
15:25 -10.4 °C -19.5 °C 34130.9 hPa NW 41.7 km/h 41.7 km/h 32 % 0 mm 541.0 W/m2 CLR
15:30 -10.4 °C -19.7 °C 34130.9 hPa NW 35.7 km/h 35.7 km/h 31 % 0 mm 531.0 W/m2 CLR
15:35 -10.4 °C -19.7 °C 34130.9 hPa North 44.7 km/h 44.7 km/h 31 % 0 mm 517.0 W/m2 CLR
15:45 -10.4 °C -19.7 °C 34120.7 hPa NW 38.8 km/h 38.8 km/h 31 % 0 mm 497.0 W/m2 CLR
15:50 -10.4 °C -19.7 °C 34120.7 hPa NNW 44.7 km/h 44.7 km/h 31 % 0 mm 485.0 W/m2 CLR
15:55 -10.7 °C -19.9 °C 34120.7 hPa North 32.8 km/h 32.8 km/h 31 % 0 mm 473.0 W/m2 CLR
16:00 -10.7 °C -19.9 °C 34107.2 hPa NW 38.8 km/h 38.8 km/h 31 % 0 mm 461.0 W/m2 CLR
16:05 -10.4 °C -19.7 °C 34107.2 hPa WNW 35.7 km/h 35.7 km/h 31 % 0 mm 452.0 W/m2 CLR
16:10 -10.4 °C -19.5 °C 34107.2 hPa NNW 44.7 km/h 44.7 km/h 32 % 0 mm 432.0 W/m2 CLR
16:15 -10.4 °C -19.5 °C 34107.2 hPa NNW 38.8 km/h 38.8 km/h 32 % 0 mm 417.0 W/m2 CLR
16:20 -10.4 °C -19.5 °C 34107.2 hPa NNW 41.7 km/h 41.7 km/h 32 % 0 mm 406.0 W/m2 CLR
16:25 -10.7 °C -19.3 °C 34107.2 hPa North 44.7 km/h 44.7 km/h 34 % 0 mm 380.0 W/m2 CLR
16:30 -10.7 °C -19.5 °C 34097 hPa North 44.7 km/h 44.7 km/h 33 % 0 mm 373.0 W/m2 CLR
16:35 -10.7 °C -19.3 °C 34097 hPa NNW 41.7 km/h 41.7 km/h 34 % 0 mm 353.0 W/m2 CLR
16:40 -10.7 °C -19.1 °C 34097 hPa NNW 32.8 km/h 32.8 km/h 35 % 0 mm 336.0 W/m2 CLR
16:45 -10.7 °C -19.5 °C 34097 hPa North 59.5 km/h 59.5 km/h 33 % 0 mm 330.0 W/m2 CLR
16:50 -10.7 °C -19.5 °C 34097 hPa North 44.7 km/h 44.7 km/h 33 % 0 mm 309.0 W/m2 CLR
16:55 -10.7 °C -19.5 °C 34097 hPa NNW 47.6 km/h 47.6 km/h 33 % 0 mm 292.0 W/m2 CLR
17:00 -10.7 °C -19.3 °C 34086.9 hPa North 56.6 km/h 56.6 km/h 34 % 0 mm 279.0 W/m2 CLR
17:05 -11 °C -19.6 °C 34097 hPa North 41.7 km/h 41.7 km/h 34 % 0 mm 258.0 W/m2 CLR
17:10 -11.3 °C -19.8 °C 34097 hPa NNW 29.8 km/h 29.8 km/h 34 % 0 mm 243.0 W/m2 CLR
17:15 -11.3 °C -19.8 °C 34097 hPa North 38.8 km/h 38.8 km/h 34 % 0 mm 227.0 W/m2 CLR
17:20 -11.3 °C -19.8 °C 34097 hPa North 28.5 km/h 28.5 km/h 34 % 0 mm 206.0 W/m2 CLR
17:25 -11.3 °C -19.6 °C 34086.9 hPa North 29.8 km/h 29.8 km/h 35 % 0 mm 188.0 W/m2 CLR
17:44 -11.6 °C -19.9 °C 34086.9 hPa NE 36.2 km/h 36.2 km/h 35 % 0 mm 125.0 W/m2 CLR
17:45 -11.6 °C -19.9 °C 34086.9 hPa NW 23.8 km/h 23.8 km/h 35 % 0 mm 121.0 W/m2 CLR
17:50 -11.6 °C -20.3 °C 34086.9 hPa NNW 29.8 km/h 29.8 km/h 33 % 0 mm 105.0 W/m2 CLR
17:55 -11.6 °C -20.1 °C 34086.9 hPa North 25.9 km/h 25.9 km/h 34 % 0 mm 91.0 W/m2 CLR
18:00 -11.6 °C -20.3 °C 34073.3 hPa NNW 31.1 km/h 31.1 km/h 33 % 0 mm 77.0 W/m2 FEW
18:05 -11.6 °C -20.6 °C 34086.9 hPa NNW 29.8 km/h 29.8 km/h 32 % 0 mm 60.0 W/m2 SCT
18:10 -11.6 °C -20.6 °C 34086.9 hPa NNW 20.8 km/h 20.8 km/h 32 % 0 mm 49.0 W/m2 SCT
18:15 -11.9 °C -20.8 °C 34086.9 hPa NW 20.9 km/h 20.9 km/h 32 % 0 mm 42.0 W/m2 BKN
18:20 -11.9 °C -21.1 °C 34086.9 hPa North 29.8 km/h 29.8 km/h 31 % 0 mm 30.0 W/m2 BKN
18:25 -11.9 °C -21.1 °C 34086.9 hPa NNW 23.3 km/h 23.3 km/h 31 % 0 mm 21.0 W/m2 BKN
18:30 -11.9 °C -21.3 °C 34086.9 hPa NNW 26.9 km/h 26.9 km/h 30 % 0 mm 16.0 W/m2 BKN
18:35 -12.2 °C -21.1 °C 34086.9 hPa Calm     32 % 0 mm 14.0 W/m2 BKN
18:40 -12.6 °C -21.6 °C 34097 hPa NNW 26.9 km/h 26.9 km/h 31 % 0 mm 9.0 W/m2 BKN
18:45 -12.6 °C -21.8 °C 34097 hPa NW 35.7 km/h 35.7 km/h 30 % 0 mm 5.0 W/m2 OVC
18:50 -12.6 °C -21.8 °C 34097 hPa North 29.8 km/h 29.8 km/h 30 % 0 mm 0.0 W/m2 OVC
18:55 -12.6 °C -21.8 °C 34107.2 hPa NW 29.8 km/h 29.8 km/h 30 % 0 mm 0.0 W/m2 OVC
19:00 -12.8 °C -22.1 °C 34097 hPa NNW 15 km/h 15 km/h 30 % 0 mm 0.0 W/m2 CLR
19:05 -13.2 °C -22.4 °C 34107.2 hPa NW 29.8 km/h 29.8 km/h 30 % 0 mm 0.0 W/m2 CLR
19:10 -13.4 °C -22.6 °C 34107.2 hPa NNW 47.6 km/h 47.6 km/h 30 % 0 mm 0.0 W/m2 CLR
19:15 -13.2 °C -22.4 °C 34107.2 hPa North 31.1 km/h 31.1 km/h 30 % 0 mm 0.0 W/m2 CLR
19:20 -13.2 °C -22.4 °C 34120.7 hPa NNW 32.8 km/h 32.8 km/h 30 % 0 mm 0.0 W/m2 CLR
19:25 -13.2 °C -22.4 °C 34120.7 hPa NNW 36.2 km/h 36.2 km/h 30 % 0 mm 0.0 W/m2 CLR
19:30 -13.2 °C -22.1 °C 34120.7 hPa West 46.7 km/h 46.7 km/h 31 % 0 mm 0.0 W/m2 CLR
19:35 -13.2 °C -22.1 °C 34120.7 hPa NW 17.9 km/h 17.9 km/h 31 % 0 mm 0.0 W/m2 CLR
19:40 -13.4 °C -22.4 °C 34120.7 hPa NW 26.9 km/h 26.9 km/h 31 % 0 mm 0.0 W/m2 CLR
19:45 -13.4 °C -22.4 °C 34120.7 hPa NW 2.6 km/h   31 % 0 mm 0.0 W/m2 CLR
19:50 -14.1 °C -22.9 °C 34120.7 hPa WNW 11.9 km/h 11.9 km/h 31 % 0 mm 0.0 W/m2 CLR
19:55 -14.4 °C -23 °C 34120.7 hPa NW 23.8 km/h 23.8 km/h 32 % 0 mm 0.0 W/m2 CLR
20:00 -14.1 °C -22.7 °C 34120.7 hPa WSW 3.1 km/h 3.1 km/h 32 % 0 mm 0.0 W/m2 CLR
20:05 -14.4 °C -23 °C 34120.7 hPa WNW 23.3 km/h 23.3 km/h 32 % 0 mm 0.0 W/m2 CLR
20:10 -14.4 °C -23 °C 34120.7 hPa West 17.9 km/h 17.9 km/h 32 % 0 mm 0.0 W/m2 CLR
20:15 -14.7 °C -23.3 °C 34120.7 hPa Calm     32 % 0 mm 0.0 W/m2 CLR
20:20 -14.7 °C -23.1 °C 34120.7 hPa WSW 9 km/h 9 km/h 33 % 0 mm 0.0 W/m2 CLR
20:25 -14.7 °C -22.8 °C 34120.7 hPa WNW 15 km/h 15 km/h 34 % 0 mm 0.0 W/m2 CLR
20:30 -15 °C -23.1 °C 34130.9 hPa WNW 6 km/h 6 km/h 34 % 0 mm 0.0 W/m2 CLR
20:35 -15.3 °C -23.2 °C 34120.7 hPa NW 3.1 km/h 3.1 km/h 35 % 0 mm 0.0 W/m2 CLR
20:40 -15.3 °C -22.9 °C 34130.9 hPa NW 9 km/h 9 km/h 36 % 0 mm 0.0 W/m2 CLR
20:45 -15.6 °C -23.2 °C 34130.9 hPa NW 11.9 km/h   36 % 0 mm 0.0 W/m2 CLR
20:50 -15.9 °C -23.5 °C 34130.9 hPa NW 9 km/h   36 % 0 mm 0.0 W/m2 CLR
20:55 -15.9 °C -23.3 °C 34130.9 hPa Calm     37 % 0 mm 0.0 W/m2 CLR
21:00 -16.2 °C -23.6 °C 34130.9 hPa Calm     37 % 0 mm 0.0 W/m2 CLR
21:05 -16.2 °C -23.6 °C 34144.4 hPa WNW 3.1 km/h   37 % 0 mm 0.0 W/m2 CLR
21:10 -16.2 °C -23.4 °C 34144.4 hPa WNW 15 km/h 15 km/h 38 % 0 mm 0.0 W/m2 CLR
21:15 -16.2 °C -23.4 °C 34144.4 hPa WNW 20.9 km/h 20.9 km/h 38 % 0 mm 0.0 W/m2 CLR
21:20 -15.9 °C -23.3 °C 34144.4 hPa NW 29.8 km/h 29.8 km/h 37 % 0 mm 0.0 W/m2 CLR
21:25 -15.3 °C -22.8 °C 34144.4 hPa NW 29.8 km/h 29.8 km/h 37 % 0 mm 0.0 W/m2 CLR
21:30 -14.7 °C -22.2 °C 34154.6 hPa NW 26.9 km/h 26.9 km/h 37 % 0 mm 0.0 W/m2 CLR
21:35 -15 °C -22.3 °C 34154.6 hPa NW 35.7 km/h 35.7 km/h 38 % 0 mm 0.0 W/m2 CLR
21:40 -14.7 °C -22.1 °C 34154.6 hPa NW 29.8 km/h 29.8 km/h 38 % 0 mm 0.0 W/m2 CLR
21:45 -14.7 °C -21.8 °C 34164.7 hPa NW 35.7 km/h 35.7 km/h 39 % 0 mm 0.0 W/m2 CLR
21:50 -14.7 °C -21.8 °C 34164.7 hPa NW 38.8 km/h 38.8 km/h 39 % 0 mm 0.0 W/m2 CLR
21:55 -14.7 °C -21.7 °C 34178.3 hPa NNW 29.8 km/h 29.8 km/h 40 % 0 mm 0.0 W/m2 CLR
22:00 -14.7 °C -21.7 °C 34178.3 hPa NNW 35.7 km/h 35.7 km/h 40 % 0 mm 0.0 W/m2 CLR
22:05 -15 °C -21.9 °C 34178.3 hPa NW 35.7 km/h 35.7 km/h 40 % 0 mm 0.0 W/m2 CLR
22:10 -15 °C -21.9 °C 34178.3 hPa NW 38.8 km/h 38.8 km/h 40 % 0 mm 0.0 W/m2 CLR
22:15 -15 °C -21.9 °C 34188.4 hPa NW 29.8 km/h 29.8 km/h 40 % 0 mm 0.0 W/m2 CLR
22:20 -15.3 °C -22.1 °C 34178.3 hPa NW 29.8 km/h 29.8 km/h 41 % 0 mm 0.0 W/m2 CLR
22:25 -15.3 °C -22.1 °C 34178.3 hPa NW 35.7 km/h 35.7 km/h 41 % 0 mm 0.0 W/m2 CLR
22:30 -15.3 °C -22.1 °C 34188.4 hPa WNW 32.8 km/h 32.8 km/h 41 % 0 mm 0.0 W/m2 CLR
22:35 -15.3 °C -22.1 °C 34188.4 hPa WNW 35.7 km/h 35.7 km/h 41 % 0 mm 0.0 W/m2 CLR
22:40 -15.3 °C -22.1 °C 34188.4 hPa WNW 15.6 km/h 18.2 km/h 41 % 0 mm 0.0 W/m2 CLR
22:46 -15.3 °C -22.1 °C 34198.6 hPa Calm     41 % 0 mm 0.0 W/m2 CLR
22:51 -15.3 °C -22.1 °C 34198.6 hPa Calm     41 % 0 mm 0.0 W/m2 CLR
22:56 -15.6 °C -22.3 °C 34198.6 hPa West 23.8 km/h 23.8 km/h 41 % 0 mm 0.0 W/m2 CLR
23:01 -15.6 °C -22.3 °C 34198.6 hPa WNW 29.8 km/h 29.8 km/h 41 % 0 mm 0.0 W/m2 CLR
23:06 -15.3 °C -22.1 °C 34198.6 hPa WSW 23.8 km/h 23.8 km/h 41 % 0 mm 0.0 W/m2 CLR
23:11 -15.6 °C -22.3 °C 34198.6 hPa WSW 25.9 km/h 25.9 km/h 41 % 0 mm 0.0 W/m2 CLR
23:16 -15.6 °C -22.3 °C 34212.1 hPa WSW 20.9 km/h 20.9 km/h 41 % 0 mm 0.0 W/m2 CLR
23:21 -15.6 °C -22.2 °C 34212.1 hPa WSW 9 km/h 9 km/h 42 % 0 mm 0.0 W/m2 CLR
23:26 -15.6 °C -22.2 °C 34212.1 hPa NW 12.9 km/h 12.9 km/h 42 % 0 mm 0.0 W/m2 CLR
23:31 -15.6 °C -22.2 °C 34212.1 hPa West 26.9 km/h 26.9 km/h 42 % 0 mm 0.0 W/m2 CLR
23:36 -15.9 °C -22.3 °C 34212.1 hPa WNW 17.9 km/h 17.9 km/h 43 % 0 mm 0.0 W/m2 CLR
23:41 -15.9 °C -22.3 °C 34222.3 hPa WNW 26.9 km/h 26.9 km/h 43 % 0 mm 0.0 W/m2 CLR
23:46 -16.2 °C -22.6 °C 34222.3 hPa WNW 26.9 km/h 26.9 km/h 43 % 0 mm 0.0 W/m2 CLR
23:51 -16.2 °C -22.6 °C 34212.1 hPa WNW 38.8 km/h 38.8 km/h 43 % 0 mm 0.0 W/m2 CLR
23:56 -16.2 °C -22.4 °C 34212.1 hPa West 28.5 km/h 28.5 km/h 44 % 0 mm 0.0 W/m2 CLR
Lo Temps de Massalio
Compliments of Weather Underground - 1.25 mb